Time;durP1;ratioP1;P1;durP2;ratioP2;P2;SDS_P1;SDS_P2;PMS_P1;PMS_P2;Temp;Humidity;BMP_temperature;BMP_pressure;BME280_temperature;BME280_humidity;BME280_pressure;Samples;Min_cycle;Max_cycle;Signal;HPM_P1;HPM_P2
2022/06/17 04:02:03;;;;;;;6.85;6.45;;;12.60;99.90;;;;;;5262861;23;20232;-69
2022/06/17 04:04:34;;;;;;;7.28;6.05;;;12.60;99.90;;;;;;4973285;28;20219;-70
2022/06/17 04:07:01;;;;;;;6.47;5.90;;;12.70;99.90;;;;;;4972885;28;20681;-70
2022/06/17 04:09:29;;;;;;;5.95;5.43;;;12.70;99.90;;;;;;4973066;28;20244;-71
2022/06/17 04:12:00;;;;;;;6.60;6.13;;;12.70;99.90;;;;;;4972350;28;20711;-70
2022/06/17 04:14:31;;;;;;;7.68;6.38;;;12.80;99.90;;;;;;4974012;28;20221;-70
2022/06/17 04:17:05;;;;;;;5.80;5.53;;;12.90;99.90;;;;;;4972434;28;20729;-70
2022/06/17 04:19:32;;;;;;;6.72;6.25;;;13.00;99.90;;;;;;4973016;28;20314;-69
2022/06/17 04:22:03;;;;;;;6.28;5.88;;;13.20;99.90;;;;;;4972363;28;20713;-70
2022/06/17 04:24:31;;;;;;;5.53;5.23;;;13.80;99.90;;;;;;4972897;28;20208;-68
2022/06/17 04:27:01;;;;;;;5.70;5.30;;;14.70;99.90;;;;;;4972672;28;20518;-70
2022/06/17 04:29:34;;;;;;;5.07;4.90;;;15.90;99.90;;;;;;4972975;28;20534;-70
2022/06/17 04:32:09;;;;;;;4.40;4.30;;;16.90;99.90;;;;;;4972222;28;20851;-69
2022/06/17 04:34:36;;;;;;;5.10;4.80;;;17.90;99.90;;;;;;4972822;28;20554;-70
2022/06/17 04:37:09;;;;;;;5.03;4.73;;;18.50;99.90;;;;;;4972358;28;20496;-70
2022/06/17 04:39:38;;;;;;;17.63;4.87;;;18.70;99.90;;;;;;4972368;28;20822;-70
2022/06/17 04:42:08;;;;;;;4.53;4.40;;;18.90;99.90;;;;;;4971944;28;20484;-70
2022/06/17 04:44:35;;;;;;;4.30;4.23;;;19.40;99.90;;;;;;4970864;28;20468;-70
2022/06/17 04:47:06;;;;;;;4.57;4.37;;;20.00;99.90;;;;;;4971802;28;20456;-70
2022/06/17 04:49:35;;;;;;;4.77;4.43;;;20.30;99.90;;;;;;4972051;28;20514;-67
2022/06/17 04:52:06;;;;;;;4.17;4.07;;;20.40;99.90;;;;;;4971986;28;20978;-68
2022/06/17 04:54:34;;;;;;;4.03;3.83;;;20.40;99.90;;;;;;4972143;28;20893;-68
2022/06/17 04:57:04;;;;;;;4.07;3.97;;;20.80;99.90;;;;;;4971597;28;21022;-69
2022/06/17 04:59:34;;;;;;;3.90;3.70;;;21.30;99.90;;;;;;4972171;28;20465;-69
2022/06/17 05:02:04;;;;;;;4.57;4.40;;;21.70;99.90;;;;;;4971502;28;20549;-69
2022/06/17 05:04:32;;;;;;;3.70;3.60;;;22.20;99.90;;;;;;4972308;28;20951;-70
2022/06/17 05:06:58;;;;;;;3.90;3.73;;;22.40;99.90;;;;;;4972204;28;20808;-69
2022/06/17 05:09:29;;;;;;;3.70;3.60;;;22.40;99.90;;;;;;4972269;28;20465;-69
2022/06/17 05:12:02;;;;;;;4.30;4.10;;;22.70;99.90;;;;;;4971509;28;20490;-69
2022/06/17 05:14:39;;;;;;;4.47;4.00;;;22.80;99.90;;;;;;4971973;28;20471;-69
2022/06/17 05:17:07;;;;;;;4.43;4.20;;;22.90;99.90;;;;;;4971488;28;20497;-69
2022/06/17 05:19:34;;;;;;;4.17;4.03;;;23.00;99.90;;;;;;4971995;28;20511;-69
2022/06/17 05:22:02;;;;;;;3.40;3.40;;;23.40;99.90;;;;;;4971774;28;20843;-69
2022/06/17 05:24:29;;;;;;;3.70;3.60;;;23.60;98.80;;;;;;4971726;28;20496;-69
2022/06/17 05:26:57;;;;;;;3.73;3.63;;;23.60;99.10;;;;;;4971323;28;20496;-69
2022/06/17 05:29:24;;;;;;;3.57;3.47;;;23.80;98.60;;;;;;4971469;28;20512;-69
2022/06/17 05:31:52;;;;;;;3.80;3.60;;;24.10;98.70;;;;;;4971253;28;20565;-69
2022/06/17 05:34:21;;;;;;;4.27;4.07;;;24.20;98.30;;;;;;4966581;28;20511;-70
2022/06/17 05:36:47;;;;;;;4.03;3.83;;;24.30;97.70;;;;;;4971088;28;20529;-71
2022/06/17 05:39:14;;;;;;;3.67;3.57;;;24.50;97.40;;;;;;4971815;28;20542;-70
2022/06/17 05:41:41;;;;;;;3.50;3.40;;;24.50;96.70;;;;;;4970739;28;20537;-71
2022/06/17 05:44:07;;;;;;;3.20;3.20;;;24.80;96.20;;;;;;4971799;28;20620;-71
2022/06/17 05:46:34;;;;;;;3.70;3.60;;;24.80;96.10;;;;;;4970937;28;20475;-71
2022/06/17 05:49:01;;;;;;;3.17;3.07;;;25.00;95.50;;;;;;4971449;28;20525;-71
2022/06/17 05:51:29;;;;;;;3.30;3.20;;;24.90;95.40;;;;;;4971216;28;20876;-71
2022/06/17 05:53:55;;;;;;;4.00;3.70;;;25.00;95.00;;;;;;4971341;28;20481;-71
2022/06/17 05:56:22;;;;;;;3.27;3.07;;;25.30;93.90;;;;;;4970899;28;20494;-71
2022/06/17 05:58:48;;;;;;;2.57;2.57;;;25.30;93.70;;;;;;4971709;28;20878;-71
2022/06/17 06:01:15;;;;;;;3.70;3.50;;;25.60;92.80;;;;;;4970713;28;20870;-71
2022/06/17 06:03:42;;;;;;;3.27;3.17;;;25.30;93.00;;;;;;4971564;28;20641;-71
2022/06/17 06:06:09;;;;;;;3.53;3.43;;;25.60;92.10;;;;;;4971431;28;20467;-71
2022/06/17 06:08:37;;;;;;;3.37;3.27;;;25.50;91.80;;;;;;4971363;28;20469;-71
2022/06/17 06:11:04;;;;;;;3.30;3.20;;;25.50;92.10;;;;;;4971158;28;20486;-72
2022/06/17 06:13:31;;;;;;;3.57;3.37;;;25.80;91.80;;;;;;4971770;28;20573;-71
2022/06/17 06:16:00;;;;;;;5.07;3.10;;;26.20;91.40;;;;;;4970909;28;20478;-71
2022/06/17 06:18:30;;;;;;;3.90;3.43;;;26.10;91.00;;;;;;4971405;28;20490;-70
2022/06/17 06:20:57;;;;;;;3.40;3.30;;;26.30;90.20;;;;;;4970763;28;20505;-71
2022/06/17 06:23:24;;;;;;;3.60;3.50;;;26.20;90.30;;;;;;4969331;28;20929;-70
2022/06/17 06:25:52;;;;;;;3.03;2.93;;;26.50;90.30;;;;;;4970910;28;20470;-70
2022/06/17 06:28:22;;;;;;;3.33;3.30;;;26.40;89.60;;;;;;4971305;28;20465;-70
2022/06/17 06:30:52;;;;;;;3.20;3.13;;;26.30;89.70;;;;;;4970322;28;20544;-70
2022/06/17 06:33:19;;;;;;;2.93;2.90;;;26.30;89.00;;;;;;4971092;28;20467;-70
2022/06/17 06:35:45;;;;;;;3.10;3.00;;;26.50;88.40;;;;;;4970610;28;20528;-70
2022/06/17 06:38:13;;;;;;;3.30;3.20;;;26.50;88.50;;;;;;4971065;28;20548;-69
2022/06/17 06:40:40;;;;;;;3.10;3.10;;;26.70;87.70;;;;;;4971632;28;21040;-69
2022/06/17 06:43:14;;;;;;;3.00;2.80;;;26.90;86.10;;;;;;4974416;28;20951;-69
2022/06/17 06:45:41;;;;;;;2.90;2.90;;;26.70;86.70;;;;;;4973871;28;20470;-69
2022/06/17 06:48:09;;;;;;;2.90;2.90;;;27.10;86.50;;;;;;4974329;28;21026;-70
2022/06/17 06:50:37;;;;;;;2.73;2.63;;;27.20;85.80;;;;;;4973787;28;20562;-70
2022/06/17 06:53:04;;;;;;;2.97;2.90;;;27.50;85.10;;;;;;4974195;28;20491;-70
2022/06/17 06:55:31;;;;;;;3.10;3.10;;;27.40;84.00;;;;;;4973516;28;20483;-70
2022/06/17 06:58:01;;;;;;;3.10;3.00;;;27.40;84.00;;;;;;4970680;28;20494;-70
2022/06/17 07:00:31;;;;;;;3.40;3.20;;;27.60;84.10;;;;;;4973189;28;20780;-69
2022/06/17 07:02:58;;;;;;;2.73;2.70;;;27.50;82.90;;;;;;4974074;28;20470;-69
2022/06/17 07:05:25;;;;;;;3.00;2.90;;;28.00;82.80;;;;;;4974254;28;20467;-70
2022/06/17 07:07:52;;;;;;;3.57;3.37;;;28.00;82.00;;;;;;4973995;28;20929;-70
2022/06/17 07:10:22;;;;;;;2.77;2.77;;;28.10;81.90;;;;;;4973367;28;20571;-70
2022/06/17 07:12:49;;;;;;;3.00;2.90;;;28.20;81.20;;;;;;4974126;28;20468;-69
2022/06/17 07:15:17;;;;;;;2.90;2.80;;;28.40;80.00;;;;;;4973310;28;20468;-69
2022/06/17 07:17:55;;;;;;;3.07;2.87;;;28.70;79.80;;;;;;4973937;28;20883;-70
2022/06/17 07:20:23;;;;;;;3.30;3.20;;;28.30;80.40;;;;;;4973555;28;20554;-70
2022/06/17 07:22:51;;;;;;;2.53;2.47;;;28.10;79.70;;;;;;4974049;28;20791;-70
2022/06/17 07:25:18;;;;;;;3.17;3.17;;;28.40;80.20;;;;;;4972897;28;20936;-70
2022/06/17 07:27:45;;;;;;;2.83;2.63;;;28.50;79.10;;;;;;4973837;28;20459;-70
2022/06/17 07:30:16;;;;;;;2.47;2.37;;;28.80;78.20;;;;;;4972980;28;20522;-70
2022/06/17 07:32:42;;;;;;;3.07;2.83;;;28.90;77.00;;;;;;4973953;28;20539;-70
2022/06/17 07:35:12;;;;;;;2.70;2.50;;;29.30;76.10;;;;;;4973473;28;20559;-70
2022/06/17 07:40:23;;;;;;;2.50;2.47;;;29.40;74.30;;;;;;4972728;28;20955;-71
2022/06/17 07:42:49;;;;;;;2.60;2.40;;;29.40;72.40;;;;;;4973558;28;20893;-71
2022/06/17 07:45:19;;;;;;;2.93;2.83;;;29.50;73.00;;;;;;4972921;28;20519;-70
2022/06/17 07:47:48;;;;;;;2.60;2.50;;;29.30;71.60;;;;;;4972181;28;20464;-71
2022/06/17 07:50:19;;;;;;;2.20;2.10;;;29.30;72.10;;;;;;4972426;28;20964;-70
2022/06/17 07:52:47;;;;;;;2.60;2.50;;;29.50;71.10;;;;;;4973168;28;20468;-71
2022/06/17 07:55:15;;;;;;;2.50;2.43;;;29.50;70.50;;;;;;4972480;28;20533;-71
2022/06/17 07:57:42;;;;;;;2.67;2.57;;;29.30;69.70;;;;;;4973071;28;20505;-70
2022/06/17 08:00:10;;;;;;;2.10;2.10;;;29.10;70.20;;;;;;4972280;28;20882;-71
2022/06/17 08:02:37;;;;;;;2.83;2.77;;;29.20;70.80;;;;;;4973264;28;20464;-70
2022/06/17 08:05:04;;;;;;;2.43;2.33;;;29.00;70.50;;;;;;4972950;28;20464;-70
2022/06/17 08:07:32;;;;;;;2.87;2.37;;;28.80;69.80;;;;;;4972634;28;20522;-70
2022/06/17 08:09:59;;;;;;;3.50;2.00;;;28.90;69.50;;;;;;4972814;28;20519;-71
2022/06/17 08:12:25;;;;;;;2.33;2.23;;;28.60;69.70;;;;;;4972454;28;20484;-70
2022/06/17 08:14:54;;;;;;;2.27;2.17;;;28.60;69.70;;;;;;4972409;28;20880;-70
2022/06/17 08:17:21;;;;;;;2.20;2.20;;;28.90;69.10;;;;;;4972723;28;20498;-70
2022/06/17 08:19:51;;;;;;;2.13;2.10;;;28.70;69.10;;;;;;4972429;28;20463;-70
2022/06/17 08:22:18;;;;;;;2.27;2.17;;;28.10;70.10;;;;;;4972590;28;20583;-70
2022/06/17 08:24:46;;;;;;;2.10;2.10;;;28.30;70.60;;;;;;4970699;28;20467;-70
2022/06/17 08:27:13;;;;;;;1.90;1.90;;;28.40;69.50;;;;;;4972064;28;20971;-70
2022/06/17 08:29:39;;;;;;;1.83;1.83;;;28.50;69.70;;;;;;4972126;28;20468;-70
2022/06/17 08:34:51;;;;;;;1.90;1.90;;;28.00;70.40;;;;;;4972702;28;20455;-69
2022/06/17 08:37:17;;;;;;;1.80;1.70;;;28.40;69.40;;;;;;4972560;28;20488;-70
2022/06/17 08:39:49;;;;;;;2.40;2.20;;;28.40;68.00;;;;;;4972160;28;20940;-70
2022/06/17 08:42:32;;;;;;;1.57;1.57;;;28.30;68.60;;;;;;4971985;28;20960;-70
2022/06/17 08:45:09;;;;;;;2.37;2.20;;;27.90;68.60;;;;;;4971930;28;20467;-70
2022/06/17 08:47:48;;;;;;;2.23;2.23;;;27.10;71.10;;;;;;4972484;28;21023;-70
2022/06/17 08:50:34;;;;;;;1.90;1.90;;;27.30;71.20;;;;;;4972111;28;20530;-70
2022/06/17 08:53:16;;;;;;;2.37;2.17;;;27.50;70.60;;;;;;4972658;28;20498;-69
2022/06/17 08:55:52;;;;;;;2.37;2.20;;;27.90;70.30;;;;;;4971683;28;20468;-70
2022/06/17 08:58:29;;;;;;;1.90;1.80;;;27.50;70.60;;;;;;4972043;28;20909;-70
2022/06/17 09:01:03;;;;;;;2.00;1.90;;;27.80;70.30;;;;;;4971484;28;20636;-70
2022/06/17 09:03:58;;;;;;;1.90;1.80;;;28.00;69.90;;;;;;4971283;28;20548;-70
2022/06/17 09:06:38;;;;;;;2.07;2.07;;;27.80;70.10;;;;;;4970598;28;20554;-70
2022/06/17 09:09:28;;;;;;;3.07;2.47;;;27.70;70.90;;;;;;4972053;28;20956;-70
2022/06/17 09:12:04;;;;;;;2.67;2.57;;;27.50;71.20;;;;;;4971231;28;20490;-70
2022/06/17 09:14:43;;;;;;;1.90;1.90;;;27.70;71.20;;;;;;4964984;28;20474;-70
2022/06/17 09:17:16;;;;;;;1.93;1.93;;;28.00;72.20;;;;;;4971431;28;20562;-70
2022/06/17 09:19:47;;;;;;;2.63;2.40;;;28.10;70.30;;;;;;4971800;28;20541;-70
2022/06/17 09:22:18;;;;;;;2.70;2.60;;;27.70;71.30;;;;;;4971640;28;20485;-70
2022/06/17 09:24:46;;;;;;;2.47;2.30;;;27.40;70.20;;;;;;4971396;28;20510;-70
2022/06/17 09:27:20;;;;;;;2.97;2.73;;;27.30;71.50;;;;;;4971481;28;20475;-70
2022/06/17 09:29:52;;;;;;;2.63;2.53;;;27.40;71.90;;;;;;4971950;28;20466;-71
2022/06/17 09:32:23;;;;;;;5.43;2.70;;;27.30;71.10;;;;;;4971637;28;20493;-70
2022/06/17 09:34:55;;;;;;;2.50;2.50;;;27.30;71.30;;;;;;4971596;28;20532;-71
2022/06/17 09:37:27;;;;;;;2.40;2.40;;;27.20;72.70;;;;;;4971602;28;20893;-71
2022/06/17 09:39:57;;;;;;;2.43;2.33;;;27.20;73.70;;;;;;4971829;28;20535;-71
2022/06/17 09:42:32;;;;;;;2.77;2.77;;;27.10;72.60;;;;;;4971556;28;20518;-70
2022/06/17 09:45:06;;;;;;;3.47;2.53;;;26.90;73.50;;;;;;4971587;28;20568;-71
2022/06/17 09:47:37;;;;;;;2.53;2.43;;;26.90;74.20;;;;;;4970461;28;20465;-71
2022/06/17 09:50:10;;;;;;;3.43;2.90;;;27.00;73.90;;;;;;4971540;28;20462;-69
2022/06/17 09:52:41;;;;;;;2.23;2.23;;;27.00;74.10;;;;;;4971879;28;20469;-70
2022/06/17 09:55:16;;;;;;;2.47;2.47;;;27.10;75.00;;;;;;4971406;28;20522;-70
2022/06/17 09:57:48;;;;;;;2.63;2.63;;;27.20;74.90;;;;;;4971790;28;20595;-71
2022/06/17 10:00:19;;;;;;;2.93;2.83;;;27.30;74.00;;;;;;4970474;28;20571;-70
2022/06/17 10:02:50;;;;;;;2.67;2.50;;;27.10;74.00;;;;;;4971393;28;20910;-70
2022/06/17 10:05:26;;;;;;;2.80;2.40;;;27.10;74.50;;;;;;4971337;28;20475;-70
2022/06/17 10:08:00;;;;;;;3.00;2.90;;;27.00;74.50;;;;;;4971612;28;20466;-70
2022/06/17 10:10:35;;;;;;;3.00;2.90;;;26.90;74.90;;;;;;4970464;28;20504;-70
2022/06/17 10:13:18;;;;;;;2.90;2.80;;;26.60;76.00;;;;;;4972333;28;20463;-74
2022/06/17 10:18:37;;;;;;;3.17;2.87;;;26.80;76.00;;;;;;4975002;28;20851;-70
2022/06/17 10:21:31;;;;;;;3.43;3.13;;;26.90;75.70;;;;;;4974519;28;20555;-70
2022/06/17 10:24:07;;;;;;;2.57;2.57;;;26.80;76.20;;;;;;4974703;28;20936;-70
2022/06/17 10:26:45;;;;;;;3.13;2.93;;;26.80;75.40;;;;;;4974233;28;21045;-69
2022/06/17 10:29:25;;;;;;;3.10;3.10;;;26.80;75.90;;;;;;4974849;28;20468;-70
2022/06/17 10:31:52;;;;;;;2.80;2.70;;;26.70;74.50;;;;;;4974053;28;20495;-70
2022/06/17 10:34:22;;;;;;;3.30;3.20;;;26.60;76.60;;;;;;4974898;28;20477;-70
2022/06/17 10:36:54;;;;;;;3.37;3.00;;;26.60;76.60;;;;;;4970266;28;21014;-69
2022/06/17 10:39:24;;;;;;;2.93;2.73;;;26.60;75.70;;;;;;4974504;28;21053;-69
2022/06/17 10:41:52;;;;;;;4.00;3.80;;;26.60;76.10;;;;;;4973845;28;20551;-70
2022/06/17 10:44:24;;;;;;;3.73;3.40;;;26.60;76.60;;;;;;4974746;28;20532;-70
2022/06/17 10:46:55;;;;;;;3.43;3.30;;;26.60;76.30;;;;;;4974175;28;20494;-70
2022/06/17 10:49:29;;;;;;;3.53;3.23;;;26.50;76.00;;;;;;4974651;28;20473;-69
2022/06/17 10:51:58;;;;;;;3.90;3.70;;;26.60;76.70;;;;;;4974480;28;20885;-69
2022/06/17 10:54:29;;;;;;;3.97;3.77;;;26.40;76.80;;;;;;4974266;28;20474;-69
2022/06/17 10:57:02;;;;;;;3.60;3.40;;;26.40;77.20;;;;;;4974043;28;20470;-70
2022/06/17 10:59:36;;;;;;;3.40;3.30;;;26.60;78.10;;;;;;4974237;28;20493;-70
2022/06/17 11:02:04;;;;;;;4.20;3.90;;;26.60;77.20;;;;;;4973954;28;20500;-70
2022/06/17 11:04:34;;;;;;;3.57;3.40;;;26.60;77.50;;;;;;4973982;28;20465;-70
2022/06/17 11:07:05;;;;;;;4.27;4.07;;;26.80;77.30;;;;;;4974609;28;20533;-70
2022/06/17 11:09:36;;;;;;;4.10;3.90;;;27.00;76.30;;;;;;4974170;28;20463;-69
2022/06/17 11:12:06;;;;;;;3.80;3.50;;;26.80;75.80;;;;;;4973802;28;20561;-70
2022/06/17 11:14:39;;;;;;;3.50;3.40;;;26.70;77.10;;;;;;4966845;28;20496;-69
2022/06/17 11:17:16;;;;;;;4.00;3.80;;;26.70;78.00;;;;;;4973228;28;20973;-69
2022/06/17 11:19:44;;;;;;;3.80;3.60;;;26.90;78.90;;;;;;4974176;28;20572;-70
2022/06/17 11:22:19;;;;;;;4.30;4.10;;;27.00;78.00;;;;;;4973867;28;20486;-68
2022/06/17 11:24:54;;;;;;;3.73;3.53;;;26.90;76.90;;;;;;4973405;28;20477;-70
2022/06/17 11:27:29;;;;;;;3.47;3.37;;;26.90;77.00;;;;;;4972584;28;20556;-69
2022/06/17 11:30:19;;;;;;;3.03;3.03;;;26.70;77.00;;;;;;4973078;28;20497;-69
2022/06/17 11:32:49;;;;;;;3.47;3.33;;;26.60;77.70;;;;;;4973273;28;20939;-68
2022/06/17 11:35:25;;;;;;;3.40;3.30;;;26.80;77.50;;;;;;4973474;28;20470;-69
2022/06/17 11:37:53;;;;;;;6.40;4.10;;;27.00;78.00;;;;;;4973269;28;20612;-69
2022/06/17 11:40:22;;;;;;;4.00;3.70;;;27.10;78.20;;;;;;4972777;28;20554;-70
2022/06/17 11:42:52;;;;;;;3.57;3.37;;;27.10;77.10;;;;;;4973629;28;20469;-69
2022/06/17 11:45:24;;;;;;;4.40;4.10;;;27.10;77.60;;;;;;4972631;28;20550;-69
2022/06/17 11:47:57;;;;;;;4.60;4.30;;;27.30;75.50;;;;;;4973494;28;20481;-69
2022/06/17 11:50:27;;;;;;;4.03;3.70;;;27.50;74.60;;;;;;4972588;28;20471;-68
2022/06/17 11:53:04;;;;;;;3.10;3.00;;;27.60;74.70;;;;;;4973509;28;20475;-69
2022/06/17 11:55:33;;;;;;;4.17;3.80;;;27.80;75.70;;;;;;4972461;28;20543;-69
2022/06/17 11:58:00;;;;;;;3.97;3.77;;;27.80;74.20;;;;;;4972728;28;20471;-68
2022/06/17 12:00:42;;;;;;;4.07;3.70;;;27.80;74.80;;;;;;4971873;28;20594;-70
2022/06/17 12:03:09;;;;;;;3.53;3.43;;;27.80;74.40;;;;;;4969129;28;20842;-71
2022/06/17 12:05:38;;;;;;;3.87;3.77;;;27.60;74.20;;;;;;4973300;28;20495;-71
2022/06/17 12:08:13;;;;;;;4.30;4.00;;;27.50;74.50;;;;;;4973256;28;20803;-70
2022/06/17 12:10:46;;;;;;;3.43;3.40;;;27.40;74.90;;;;;;4972070;28;21029;-71
2022/06/17 12:13:27;;;;;;;3.63;3.53;;;27.30;75.90;;;;;;4973466;28;20475;-70
2022/06/17 12:16:00;;;;;;;3.80;3.70;;;27.30;76.00;;;;;;4972192;28;20534;-70
2022/06/17 12:18:31;;;;;;;3.70;3.60;;;27.20;76.80;;;;;;4972812;28;20553;-70
2022/06/17 12:21:08;;;;;;;3.00;3.00;;;27.30;77.70;;;;;;4972373;28;20533;-70
2022/06/17 12:23:41;;;;;;;3.60;3.40;;;27.40;75.80;;;;;;4972560;28;20955;-70
2022/06/17 12:26:13;;;;;;;3.20;3.00;;;27.40;76.30;;;;;;4972687;28;20470;-70
2022/06/17 12:28:46;;;;;;;4.07;3.97;;;27.10;77.30;;;;;;4972806;28;20895;-70
2022/06/17 12:31:25;;;;;;;3.80;3.60;;;27.10;77.80;;;;;;4971988;28;20490;-71
2022/06/17 12:34:02;;;;;;;3.70;3.57;;;27.10;77.80;;;;;;4972302;28;20620;-70
2022/06/17 12:36:33;;;;;;;4.10;3.80;;;27.00;77.10;;;;;;4967988;28;20475;-70
2022/06/17 12:39:06;;;;;;;4.47;4.27;;;27.00;79.30;;;;;;4972407;28;20494;-70
2022/06/17 12:41:41;;;;;;;3.87;3.77;;;26.90;78.00;;;;;;4971569;28;20493;-71
2022/06/17 12:44:17;;;;;;;5.07;3.47;;;26.80;77.90;;;;;;4972397;28;20468;-70
2022/06/17 12:46:50;;;;;;;4.00;3.70;;;26.60;78.30;;;;;;4971857;28;20898;-70
2022/06/17 12:55:05;;;;;;;4.47;4.20;;;26.50;79.10;;;;;;4939256;28;20452;-70
2022/06/17 12:57:37;;;;;;;4.30;4.13;;;26.40;79.30;;;;;;4971998;28;20469;-70
2022/06/17 13:00:08;;;;;;;3.70;3.60;;;26.40;79.60;;;;;;4971343;28;20488;-70
2022/06/17 13:02:56;;;;;;;4.07;3.80;;;26.40;79.30;;;;;;4971224;28;20504;-69
2022/06/17 13:05:28;;;;;;;3.53;3.33;;;26.40;78.60;;;;;;4971538;28;20515;-69
2022/06/17 13:08:09;;;;;;;3.83;3.63;;;26.20;78.90;;;;;;4972002;28;20458;-70
2022/06/17 13:10:43;;;;;;;4.03;3.83;;;26.20;79.30;;;;;;4971266;28;20848;-70
2022/06/17 13:13:23;;;;;;;3.60;3.40;;;26.30;78.80;;;;;;4965924;28;20465;-70
2022/06/17 13:15:54;;;;;;;4.30;3.90;;;26.30;78.70;;;;;;4963778;28;20471;-69
2022/06/17 13:18:28;;;;;;;3.93;3.83;;;26.50;79.10;;;;;;4977975;28;20476;-70
2022/06/17 13:21:01;;;;;;;3.43;3.23;;;26.50;78.50;;;;;;4978013;28;20504;-72
2022/06/17 13:23:39;;;;;;;3.80;3.60;;;26.60;79.10;;;;;;4973070;28;20477;-70
2022/06/17 13:26:12;;;;;;;4.00;3.90;;;26.50;77.20;;;;;;4971287;28;20469;-70
2022/06/17 13:28:47;;;;;;;4.10;3.90;;;26.70;78.60;;;;;;4971847;28;20954;-70
2022/06/17 13:31:18;;;;;;;3.30;3.30;;;26.80;78.30;;;;;;4970988;28;20488;-69
2022/06/17 13:33:51;;;;;;;3.73;3.47;;;26.90;77.30;;;;;;4972101;28;20828;-70
2022/06/17 13:36:20;;;;;;;3.40;3.30;;;27.00;78.30;;;;;;4971475;28;20532;-70
2022/06/17 13:38:57;;;;;;;4.17;3.53;;;27.20;77.50;;;;;;4971619;28;20485;-70
2022/06/17 13:41:31;;;;;;;3.47;3.37;;;27.20;75.50;;;;;;4971146;28;20549;-69
2022/06/17 13:44:05;;;;;;;3.83;3.63;;;27.40;76.30;;;;;;4972605;28;20851;-69
2022/06/17 13:46:40;;;;;;;3.20;3.00;;;27.30;75.10;;;;;;4971505;28;20888;-70
2022/06/17 13:49:15;;;;;;;3.50;3.23;;;27.30;75.30;;;;;;4972713;28;20469;-70
2022/06/17 13:51:56;;;;;;;3.40;3.30;;;27.30;76.10;;;;;;4975291;28;20559;-70
2022/06/17 13:54:32;;;;;;;3.80;3.60;;;27.40;75.90;;;;;;4975562;28;20552;-70
2022/06/17 13:57:06;;;;;;;3.90;3.70;;;27.50;75.30;;;;;;4975263;28;20474;-69
2022/06/17 13:59:38;;;;;;;3.27;3.17;;;27.50;76.80;;;;;;4975151;28;20520;-70
2022/06/17 14:02:21;;;;;;;3.50;3.20;;;27.70;76.90;;;;;;4971109;28;20498;-70
2022/06/17 14:05:08;;;;;;;3.90;3.60;;;27.80;76.30;;;;;;4967916;28;21056;-71
2022/06/17 14:08:00;;;;;;;3.60;3.50;;;27.60;74.20;;;;;;4975372;28;20470;-70
2022/06/17 14:10:41;;;;;;;8.43;3.50;;;27.60;75.10;;;;;;4974509;28;20462;-70
2022/06/17 14:13:27;;;;;;;3.53;3.43;;;27.70;74.40;;;;;;4975555;28;20556;-70
2022/06/17 14:16:02;;;;;;;3.13;3.03;;;27.70;72.30;;;;;;4974642;28;20474;-69
2022/06/17 14:18:33;;;;;;;3.70;3.40;;;27.70;74.60;;;;;;4974775;28;20474;-70
2022/06/17 14:21:09;;;;;;;4.00;3.80;;;27.50;73.80;;;;;;4974839;28;20497;-70
2022/06/17 14:23:49;;;;;;;3.97;3.63;;;27.20;74.20;;;;;;4974880;28;20473;-70
2022/06/17 14:27:02;;;;;;;3.50;3.40;;;27.20;75.10;;;;;;4974405;28;20960;-70
2022/06/17 14:29:31;;;;;;;4.00;3.57;;;27.00;75.50;;;;;;4974958;28;20473;-69
2022/06/17 14:32:01;;;;;;;3.93;3.63;;;26.90;76.80;;;;;;4974233;28;20498;-70
2022/06/17 14:34:50;;;;;;;3.57;3.47;;;26.70;75.80;;;;;;4974791;28;20464;-70
2022/06/17 14:37:49;;;;;;;4.97;4.47;;;26.70;75.70;;;;;;4970171;28;20547;-70
2022/06/17 14:40:19;;;;;;;4.27;4.07;;;26.70;76.90;;;;;;4973668;28;21103;-70
2022/06/17 14:42:56;;;;;;;3.53;3.27;;;26.80;77.30;;;;;;4974589;28;21008;-70
2022/06/17 14:45:52;;;;;;;2.93;2.93;;;26.70;76.60;;;;;;4973978;28;20474;-69
2022/06/17 14:48:33;;;;;;;3.80;3.67;;;26.80;76.20;;;;;;4974430;28;21012;-69
2022/06/17 14:51:02;;;;;;;3.83;3.70;;;26.80;75.30;;;;;;4974258;28;20605;-70
2022/06/17 14:53:39;;;;;;;3.67;3.60;;;26.80;75.20;;;;;;4973986;28;20542;-69
2022/06/17 14:56:38;;;;;;;3.50;3.33;;;26.80;74.60;;;;;;4973946;28;20605;-69
2022/06/17 14:59:20;;;;;;;3.17;3.17;;;26.90;75.70;;;;;;4974466;28;20499;-68
2022/06/17 15:01:49;;;;;;;3.73;3.50;;;27.00;76.30;;;;;;4972861;28;20499;-69
2022/06/17 15:04:24;;;;;;;3.80;3.60;;;27.10;76.10;;;;;;4974751;28;20465;-69
2022/06/17 15:06:53;;;;;;;3.87;3.53;;;26.90;74.60;;;;;;4974116;28;20505;-69
2022/06/17 15:09:25;;;;;;;3.17;3.17;;;26.90;76.00;;;;;;4974374;28;20518;-69
2022/06/17 15:11:55;;;;;;;3.77;3.63;;;26.80;75.30;;;;;;4973698;28;20972;-69
2022/06/17 15:14:23;;;;;;;3.90;3.80;;;26.80;75.40;;;;;;4974297;28;20467;-69
2022/06/17 15:16:51;;;;;;;3.50;3.30;;;26.70;76.40;;;;;;4973435;28;20477;-69
2022/06/17 15:19:21;;;;;;;3.67;3.40;;;26.80;76.70;;;;;;4974631;28;20485;-68
2022/06/17 15:21:54;;;;;;;3.60;3.37;;;26.70;76.00;;;;;;4973316;28;20982;-69
2022/06/17 15:24:41;;;;;;;3.90;3.80;;;26.70;75.70;;;;;;4973835;28;20495;-69
2022/06/17 15:27:19;;;;;;;3.00;3.00;;;26.60;75.60;;;;;;4971378;28;20464;-69
2022/06/17 15:29:56;;;;;;;3.70;3.50;;;26.30;76.50;;;;;;4954482;29;20836;-69
2022/06/17 15:32:23;;;;;;;4.10;3.90;;;26.20;75.50;;;;;;4954248;28;20516;-69
2022/06/17 15:34:50;;;;;;;3.90;3.70;;;26.20;75.40;;;;;;4954318;29;20468;-69
2022/06/17 15:37:25;;;;;;;4.10;4.00;;;26.20;76.80;;;;;;4954303;29;20983;-69
2022/06/17 15:40:07;;;;;;;3.93;3.67;;;26.30;76.30;;;;;;4954230;28;20491;-70
2022/06/17 15:42:34;;;;;;;4.07;3.97;;;26.30;75.60;;;;;;4954394;28;20500;-70
2022/06/17 15:45:05;;;;;;;4.23;3.93;;;26.30;76.30;;;;;;4953838;28;20465;-70
2022/06/17 15:47:32;;;;;;;3.27;3.27;;;26.30;77.40;;;;;;4954190;29;20495;-70
2022/06/17 15:50:02;;;;;;;4.43;4.23;;;26.30;76.60;;;;;;4953967;29;20464;-70
2022/06/17 15:52:33;;;;;;;3.90;3.80;;;26.20;76.90;;;;;;4954081;28;20572;-70
2022/06/17 15:55:11;;;;;;;3.70;3.50;;;26.20;77.90;;;;;;4953915;29;20505;-70
2022/06/17 15:57:50;;;;;;;4.07;3.87;;;26.20;78.10;;;;;;4954404;29;20485;-70
2022/06/17 16:00:21;;;;;;;3.73;3.57;;;26.00;76.40;;;;;;4953210;28;20534;-69
2022/06/17 16:02:51;;;;;;;4.07;3.87;;;25.80;77.30;;;;;;4957541;28;20555;-70
2022/06/17 16:05:21;;;;;;;3.57;3.50;;;25.70;77.80;;;;;;4973186;28;20983;-69
2022/06/17 16:07:53;;;;;;;4.30;4.10;;;25.50;78.30;;;;;;4982945;28;20491;-69
2022/06/17 16:10:28;;;;;;;3.67;3.60;;;25.40;78.00;;;;;;4988129;28;20456;-70
2022/06/17 16:13:14;;;;;;;4.23;3.93;;;25.50;78.90;;;;;;4982670;28;20952;-70
2022/06/17 16:15:43;;;;;;;3.63;3.33;;;25.60;78.90;;;;;;4995344;23;20582;-67
2022/06/17 16:18:31;;;;;;;3.90;3.60;;;25.70;78.90;;;;;;4973265;28;20464;-68
2022/06/17 16:20:59;;;;;;;3.60;3.50;;;25.60;79.30;;;;;;4972756;28;20491;-69
2022/06/17 16:23:31;;;;;;;4.07;3.80;;;25.60;79.50;;;;;;4972300;28;21033;-72
2022/06/17 16:26:03;;;;;;;3.60;3.50;;;25.60;78.20;;;;;;4953225;29;20473;-68
2022/06/17 16:28:36;;;;;;;4.30;4.00;;;25.50;78.80;;;;;;4953714;29;20845;-70
2022/06/17 16:31:05;;;;;;;3.63;3.43;;;25.50;79.50;;;;;;4952739;29;20477;-68
2022/06/17 16:33:35;;;;;;;3.53;3.30;;;25.50;79.50;;;;;;4952986;28;20468;-69
2022/06/17 16:36:04;;;;;;;3.80;3.50;;;25.50;79.40;;;;;;4951264;29;20480;-68
2022/06/17 16:38:38;;;;;;;3.70;3.40;;;25.50;78.80;;;;;;4951765;29;20460;-68
2022/06/17 16:44:29;;;;;;;3.87;3.67;;;25.40;80.00;;;;;;4953528;28;20471;-68
2022/06/17 16:46:59;;;;;;;3.57;3.37;;;25.40;80.30;;;;;;4947985;29;20580;-69
2022/06/17 16:49:28;;;;;;;3.60;3.50;;;25.40;79.30;;;;;;4944686;29;20529;-67
2022/06/17 16:51:56;;;;;;;3.70;3.60;;;25.40;79.30;;;;;;4950955;28;20469;-66
2022/06/17 16:54:24;;;;;;;4.50;3.47;;;25.50;79.00;;;;;;4952794;29;20484;-69
2022/06/17 16:56:57;;;;;;;4.07;3.73;;;25.40;78.40;;;;;;4948787;29;20538;-69
2022/06/17 16:59:24;;;;;;;3.40;3.37;;;25.50;79.00;;;;;;4944700;29;21021;-67
2022/06/17 17:01:52;;;;;;;3.60;3.40;;;25.40;78.20;;;;;;4952056;29;20461;-68
2022/06/17 17:04:20;;;;;;;5.70;3.90;;;25.20;77.80;;;;;;4953066;28;20850;-67
2022/06/17 17:06:46;;;;;;;3.50;3.40;;;25.10;79.00;;;;;;4950526;29;21195;-68
2022/06/17 17:09:13;;;;;;;3.37;3.10;;;25.00;78.50;;;;;;4953455;28;20576;-68
2022/06/17 17:11:40;;;;;;;4.17;3.93;;;25.10;78.90;;;;;;4952246;29;20835;-67
2022/06/17 17:14:10;;;;;;;3.60;3.50;;;25.10;79.20;;;;;;4939439;29;20500;-70
2022/06/17 17:16:39;;;;;;;4.30;3.97;;;25.20;79.70;;;;;;4933302;29;20565;-68
2022/06/17 17:19:06;;;;;;;4.27;3.30;;;25.10;80.20;;;;;;4937672;29;20464;-67
2022/06/17 17:21:38;;;;;;;4.40;4.10;;;25.10;79.60;;;;;;4946698;29;20503;-68
2022/06/17 17:24:05;;;;;;;4.73;4.40;;;25.00;83.10;;;;;;4950795;28;20489;-68
2022/06/17 17:26:32;;;;;;;4.87;4.57;;;25.00;84.20;;;;;;4945600;28;20600;-67
2022/06/17 17:28:59;;;;;;;4.53;4.03;;;25.00;84.80;;;;;;4952512;29;20879;-68
2022/06/17 17:31:30;;;;;;;3.83;3.63;;;24.90;85.30;;;;;;4951958;29;20480;-68